createdAt,value
2022-11-08T00:00:01.022Z,13.07
2022-11-08T00:01:21.479Z,13.06
2022-11-08T00:02:25.842Z,13.08
2022-11-08T00:03:29.195Z,13.08
2022-11-08T00:04:32.141Z,13.08
2022-11-08T00:05:52.578Z,13.10
2022-11-08T00:07:12.812Z,13.11
2022-11-08T00:08:44.485Z,13.12
2022-11-08T00:10:04.986Z,13.12
2022-11-08T00:11:25.780Z,13.14
2022-11-08T00:12:45.897Z,13.14
2022-11-08T00:14:01.388Z,13.16
2022-11-08T00:15:04.518Z,13.16
2022-11-08T00:16:07.931Z,13.16
2022-11-08T00:17:10.374Z,13.17
2022-11-08T00:18:14.964Z,13.18
2022-11-08T00:19:17.368Z,13.19
2022-11-08T00:20:20.395Z,13.20
2022-11-08T00:21:22.454Z,13.20
2022-11-08T00:22:26.180Z,13.20
2022-11-08T00:23:28.192Z,13.22
2022-11-08T00:24:31.189Z,13.22
2022-11-08T00:25:33.200Z,13.22
2022-11-08T00:26:36.230Z,13.23
2022-11-08T00:27:39.255Z,13.24
2022-11-08T00:28:41.358Z,13.23
2022-11-08T00:29:44.534Z,13.23
2022-11-08T00:30:46.605Z,13.24
2022-11-08T00:31:49.640Z,13.20
2022-11-08T00:32:52.649Z,13.24
2022-11-08T00:33:56.096Z,13.24
2022-11-08T00:34:59.123Z,13.22
2022-11-08T00:36:01.996Z,13.22
2022-11-08T00:37:05.001Z,13.22
2022-11-08T00:38:07.224Z,13.22
2022-11-08T00:39:11.064Z,13.20
2022-11-08T00:40:14.342Z,13.21
2022-11-08T00:41:16.391Z,13.19
2022-11-08T00:42:19.407Z,13.17
2022-11-08T00:43:21.549Z,13.16
2022-11-08T00:44:24.673Z,13.16
2022-11-08T00:45:26.642Z,13.16
2022-11-08T00:46:29.671Z,13.14
2022-11-08T00:47:31.675Z,13.13
2022-11-08T00:48:34.775Z,13.12
2022-11-08T00:49:38.215Z,13.12
2022-11-08T00:50:41.838Z,13.09
2022-11-08T00:51:43.914Z,13.09
2022-11-08T00:52:47.058Z,13.09
2022-11-08T00:53:49.079Z,13.09
2022-11-08T00:54:52.113Z,13.08
2022-11-08T00:55:59.269Z,13.07
2022-11-08T00:57:02.328Z,13.06
2022-11-08T00:58:04.430Z,13.06
2022-11-08T00:59:07.637Z,13.04
2022-11-08T01:00:10.880Z,13.04
2022-11-08T01:01:15.828Z,13.02
2022-11-08T01:02:17.961Z,13.03
2022-11-08T01:03:21.299Z,13.01
2022-11-08T01:04:24.681Z,12.99
2022-11-08T01:05:28.074Z,12.99
2022-11-08T01:06:31.353Z,12.97
2022-11-08T01:07:34.198Z,12.97
2022-11-08T01:08:37.350Z,12.95
2022-11-08T01:09:39.428Z,12.95
2022-11-08T01:10:43.030Z,12.95
2022-11-08T01:11:47.835Z,12.95
2022-11-08T01:12:49.919Z,12.93
2022-11-08T01:13:56.886Z,12.93
2022-11-08T01:14:58.988Z,12.94
2022-11-08T01:16:08.222Z,12.92
2022-11-08T01:17:11.242Z,12.91
2022-11-08T01:18:16.046Z,12.90
2022-11-08T01:19:19.413Z,12.90
2022-11-08T01:20:21.445Z,12.89
2022-11-08T01:21:26.718Z,12.87
2022-11-08T01:22:28.730Z,12.87
2022-11-08T01:23:32.322Z,12.86
2022-11-08T01:24:35.332Z,12.85
2022-11-08T01:25:37.877Z,12.84
2022-11-08T01:26:40.907Z,12.83
2022-11-08T01:27:44.046Z,12.84
2022-11-08T01:28:48.501Z,12.83
2022-11-08T01:29:50.517Z,12.83
2022-11-08T01:30:53.653Z,12.82
2022-11-08T01:31:56.855Z,12.83
2022-11-08T01:32:58.963Z,12.81
2022-11-08T01:34:02.531Z,12.81
2022-11-08T01:35:05.209Z,12.81
2022-11-08T01:36:09.641Z,12.80
2022-11-08T01:37:13.181Z,12.79
2022-11-08T01:38:16.614Z,12.80
2022-11-08T01:39:19.845Z,12.79
2022-11-08T01:40:21.954Z,12.76
2022-11-08T01:41:27.741Z,12.76
2022-11-08T01:42:30.822Z,12.76
2022-11-08T01:43:41.913Z,12.75
2022-11-08T01:44:57.941Z,12.75
2022-11-08T01:46:34.900Z,12.74
2022-11-08T01:47:38.097Z,12.72
2022-11-08T01:48:46.324Z,12.71
2022-11-08T01:49:49.706Z,12.71
2022-11-08T01:50:53.301Z,12.71
2022-11-08T01:52:13.790Z,12.65
2022-11-08T01:53:19.149Z,12.69
2022-11-08T01:54:29.981Z,12.67
2022-11-08T01:55:36.475Z,12.66
2022-11-08T01:56:39.857Z,12.67
2022-11-08T01:57:48.170Z,12.66
2022-11-08T01:58:52.809Z,12.66
2022-11-08T01:59:59.834Z,12.64
2022-11-08T02:01:02.452Z,12.63
2022-11-08T02:02:06.139Z,12.62
2022-11-08T02:03:13.472Z,12.60
2022-11-08T02:04:17.873Z,12.59
2022-11-08T02:05:27.705Z,12.59
2022-11-08T02:06:30.823Z,12.56
2022-11-08T02:07:35.759Z,12.56
2022-11-08T02:08:41.557Z,12.56
2022-11-08T02:09:47.503Z,12.55
2022-11-08T02:10:51.752Z,12.52
2022-11-08T02:11:55.413Z,12.53
2022-11-08T02:12:58.032Z,12.54
2022-11-08T02:14:03.685Z,12.54
2022-11-08T02:15:07.318Z,12.54
2022-11-08T02:16:14.110Z,12.55
2022-11-08T02:17:16.221Z,12.55
2022-11-08T02:18:22.308Z,12.54
2022-11-08T02:19:33.871Z,12.54
2022-11-08T02:20:37.179Z,12.55
2022-11-08T02:21:45.180Z,12.54
2022-11-08T02:22:53.376Z,12.56
2022-11-08T02:23:58.890Z,12.56
2022-11-08T02:25:02.428Z,12.56
2022-11-08T02:26:04.473Z,12.58
2022-11-08T02:27:07.562Z,12.59
2022-11-08T02:28:09.595Z,12.60
2022-11-08T02:29:30.866Z,12.62
2022-11-08T02:30:33.685Z,12.62
2022-11-08T02:31:36.670Z,12.64
2022-11-08T02:32:39.266Z,12.66
2022-11-08T02:33:43.084Z,12.67
2022-11-08T02:34:49.042Z,12.67
2022-11-08T02:35:56.007Z,12.70
2022-11-08T02:36:59.829Z,12.70
2022-11-08T02:38:02.989Z,12.72
2022-11-08T02:39:06.436Z,12.73
2022-11-08T02:40:10.863Z,12.73
2022-11-08T02:41:12.931Z,12.74
2022-11-08T02:42:18.600Z,12.75
2022-11-08T02:43:21.238Z,12.77
2022-11-08T02:44:24.221Z,12.77
2022-11-08T02:45:26.243Z,12.78
2022-11-08T02:46:29.265Z,12.78
2022-11-08T02:47:32.352Z,12.78
2022-11-08T02:48:34.405Z,12.80
2022-11-08T02:49:37.449Z,12.81
2022-11-08T02:50:41.000Z,12.81
2022-11-08T02:51:43.058Z,12.82
2022-11-08T02:52:46.026Z,12.81
2022-11-08T02:53:48.144Z,12.83
2022-11-08T02:54:52.520Z,12.84
2022-11-08T02:55:54.632Z,12.83
2022-11-08T02:56:57.673Z,12.85
2022-11-08T02:57:59.720Z,12.86
2022-11-08T02:59:02.828Z,12.86
2022-11-08T03:00:05.433Z,12.87
2022-11-08T03:01:08.515Z,12.86
2022-11-08T03:02:11.818Z,12.86
2022-11-08T03:03:14.013Z,12.87
2022-11-08T03:04:17.053Z,12.89
2022-11-08T03:05:19.319Z,12.88
2022-11-08T03:06:22.340Z,12.87
2022-11-08T03:07:25.133Z,12.88
2022-11-08T03:08:28.254Z,12.87
2022-11-08T03:09:30.297Z,12.87
2022-11-08T03:10:34.682Z,12.86
2022-11-08T03:11:36.738Z,12.86
2022-11-08T03:12:40.547Z,12.85
2022-11-08T03:13:42.603Z,12.84
2022-11-08T03:14:45.749Z,12.84
2022-11-08T03:15:47.822Z,12.83
2022-11-08T03:16:50.827Z,12.83
2022-11-08T03:17:52.820Z,12.81
2022-11-08T03:18:55.871Z,12.81
2022-11-08T03:19:57.945Z,12.80
2022-11-08T03:21:01.596Z,12.80
2022-11-08T03:22:03.802Z,12.77
2022-11-08T03:23:08.093Z,12.77
2022-11-08T03:24:11.706Z,12.75
2022-11-08T03:25:15.278Z,12.74
2022-11-08T03:26:18.667Z,12.72
2022-11-08T03:27:21.801Z,12.70
2022-11-08T03:28:24.183Z,12.70
2022-11-08T03:29:27.446Z,12.66
2022-11-08T03:30:29.464Z,12.65
2022-11-08T03:31:32.515Z,12.64
2022-11-08T03:32:34.614Z,12.63
2022-11-08T03:33:37.660Z,12.61
2022-11-08T03:34:39.828Z,12.59
2022-11-08T03:35:44.236Z,12.59
2022-11-08T03:36:47.253Z,12.57
2022-11-08T03:37:50.959Z,12.55
2022-11-08T03:38:53.988Z,12.54
2022-11-08T03:39:56.078Z,12.52
2022-11-08T03:40:59.183Z,12.51
2022-11-08T03:42:04.535Z,12.50
2022-11-08T03:43:07.647Z,12.47
2022-11-08T03:44:09.834Z,12.46
2022-11-08T03:45:13.086Z,12.44
2022-11-08T03:46:16.142Z,12.43
2022-11-08T03:47:18.206Z,12.41
2022-11-08T03:48:23.471Z,12.39
2022-11-08T03:49:26.737Z,12.37
2022-11-08T03:50:29.849Z,12.36
2022-11-08T03:51:32.891Z,12.35
2022-11-08T03:52:41.206Z,12.31
2022-11-08T03:53:44.237Z,12.32
2022-11-08T03:54:46.310Z,12.31
2022-11-08T03:55:49.418Z,12.29
2022-11-08T03:56:51.492Z,12.29
2022-11-08T03:57:56.175Z,12.28
2022-11-08T03:58:59.216Z,12.26
2022-11-08T04:00:01.234Z,12.24
2022-11-08T04:01:05.473Z,12.23
2022-11-08T04:02:07.672Z,12.21
2022-11-08T04:03:10.835Z,12.20
2022-11-08T04:04:12.878Z,12.18
2022-11-08T04:05:17.042Z,12.18
2022-11-08T04:06:20.040Z,12.16
2022-11-08T04:07:22.034Z,12.14
2022-11-08T04:08:25.087Z,12.13
2022-11-08T04:09:27.160Z,12.10
2022-11-08T04:10:30.296Z,12.09
2022-11-08T04:11:50.756Z,12.07
2022-11-08T04:13:13.025Z,12.06
2022-11-08T04:14:33.687Z,12.04
2022-11-08T04:15:37.169Z,12.02
2022-11-08T04:16:39.431Z,12.01
2022-11-08T04:18:00.517Z,12.00
2022-11-08T04:19:21.372Z,12.00
2022-11-08T04:20:41.964Z,11.99
2022-11-08T04:21:46.220Z,11.97
2022-11-08T04:22:48.290Z,11.96
2022-11-08T04:23:53.184Z,11.94
2022-11-08T04:24:55.172Z,11.94
2022-11-08T04:25:59.695Z,11.92
2022-11-08T04:27:02.727Z,11.91
2022-11-08T04:28:07.519Z,11.90
2022-11-08T04:29:11.106Z,11.89
2022-11-08T04:30:13.535Z,11.87
2022-11-08T04:31:18.348Z,11.83
2022-11-08T04:32:20.380Z,11.85
2022-11-08T04:33:23.996Z,11.85
2022-11-08T04:34:27.119Z,11.84
2022-11-08T04:35:30.862Z,11.82
2022-11-08T04:36:34.403Z,11.82
2022-11-08T04:37:36.426Z,11.81
2022-11-08T04:38:39.470Z,11.79
2022-11-08T04:39:41.474Z,11.77
2022-11-08T04:40:44.715Z,11.76
2022-11-08T04:41:47.737Z,11.76
2022-11-08T04:42:49.747Z,11.74
2022-11-08T04:43:56.288Z,11.74
2022-11-08T04:44:58.266Z,11.73
2022-11-08T04:46:03.578Z,11.71
2022-11-08T04:47:05.786Z,11.72
2022-11-08T04:48:09.015Z,11.70
2022-11-08T04:49:12.023Z,11.69
2022-11-08T04:50:14.784Z,11.68
2022-11-08T04:51:20.059Z,11.66
2022-11-08T04:52:22.081Z,11.65
2022-11-08T04:53:25.097Z,11.63
2022-11-08T04:54:27.117Z,11.61
2022-11-08T04:55:30.127Z,11.61
2022-11-08T04:56:32.472Z,11.58
2022-11-08T04:57:35.563Z,11.57
2022-11-08T04:58:40.848Z,11.56
2022-11-08T04:59:44.298Z,11.55
2022-11-08T05:00:47.294Z,11.54
2022-11-08T05:01:49.496Z,11.52
2022-11-08T05:02:52.675Z,11.52
2022-11-08T05:03:56.618Z,11.51
2022-11-08T05:04:58.635Z,11.50
2022-11-08T05:06:03.229Z,11.49
2022-11-08T05:07:05.320Z,11.47
2022-11-08T05:08:08.305Z,11.47
2022-11-08T05:09:10.880Z,11.47
2022-11-08T05:10:14.146Z,11.46
2022-11-08T05:11:18.198Z,11.40
2022-11-08T05:12:21.232Z,11.45
2022-11-08T05:13:23.249Z,11.46
2022-11-08T05:14:26.249Z,11.45
2022-11-08T05:15:29.590Z,11.46
2022-11-08T05:16:33.643Z,11.45
2022-11-08T05:17:35.643Z,11.43
2022-11-08T05:18:41.716Z,11.43
2022-11-08T05:20:02.888Z,11.42
2022-11-08T05:21:23.649Z,11.41
2022-11-08T05:22:46.598Z,11.38
2022-11-08T05:23:51.220Z,11.37
2022-11-08T05:24:53.181Z,11.37
2022-11-08T05:25:58.588Z,11.36
2022-11-08T05:27:00.498Z,11.36
2022-11-08T05:28:03.506Z,11.35
2022-11-08T05:29:06.171Z,11.35
2022-11-08T05:30:09.974Z,11.36
2022-11-08T05:31:15.104Z,11.36
2022-11-08T05:32:17.104Z,11.35
2022-11-08T05:33:20.214Z,11.35
2022-11-08T05:34:23.230Z,11.36
2022-11-08T05:35:25.238Z,11.35
2022-11-08T05:36:28.874Z,11.36
2022-11-08T05:37:30.918Z,11.36
2022-11-08T05:38:34.558Z,11.34
2022-11-08T05:39:36.534Z,11.34
2022-11-08T05:40:39.534Z,11.33
2022-11-08T05:41:41.559Z,11.33
2022-11-08T05:42:44.591Z,11.32
2022-11-08T05:43:49.764Z,11.33
2022-11-08T05:44:51.754Z,11.32
2022-11-08T05:45:54.799Z,11.30
2022-11-08T05:46:58.210Z,11.30
2022-11-08T05:48:03.857Z,11.27
2022-11-08T05:49:07.229Z,11.27
2022-11-08T05:50:09.396Z,11.28
2022-11-08T05:51:12.967Z,11.25
2022-11-08T05:52:15.090Z,11.24
2022-11-08T05:53:18.446Z,11.23
2022-11-08T05:54:20.685Z,11.22
2022-11-08T05:55:23.710Z,11.22
2022-11-08T05:56:25.721Z,11.21
2022-11-08T05:57:28.769Z,11.17
2022-11-08T05:58:32.773Z,11.18
2022-11-08T05:59:35.877Z,11.19
2022-11-08T06:00:37.903Z,11.18
2022-11-08T06:01:41.065Z,11.18
2022-11-08T06:02:44.681Z,11.17
2022-11-08T06:03:48.859Z,11.17
2022-11-08T06:04:50.965Z,11.17
2022-11-08T06:05:54.458Z,11.16
2022-11-08T06:06:56.464Z,11.16
2022-11-08T06:07:59.599Z,11.15
2022-11-08T06:09:02.659Z,11.14
2022-11-08T06:10:05.814Z,11.13
2022-11-08T06:11:11.089Z,11.13
2022-11-08T06:12:14.077Z,11.12
2022-11-08T06:13:16.074Z,11.11
2022-11-08T06:14:19.476Z,11.10
2022-11-08T06:15:22.773Z,11.10
2022-11-08T06:16:25.451Z,11.00
2022-11-08T06:17:30.208Z,11.08
2022-11-08T06:18:34.755Z,11.08
2022-11-08T06:19:37.811Z,11.08
2022-11-08T06:20:39.826Z,11.08
2022-11-08T06:21:43.083Z,11.03
2022-11-08T06:22:45.136Z,11.07
2022-11-08T06:23:48.248Z,11.08
2022-11-08T06:24:51.349Z,11.08
2022-11-08T06:25:53.388Z,11.08
2022-11-08T06:26:56.345Z,11.08
2022-11-08T06:28:00.907Z,11.09
2022-11-08T06:29:02.965Z,11.10
2022-11-08T06:30:07.173Z,11.10
2022-11-08T06:31:09.734Z,11.12
2022-11-08T06:32:12.749Z,11.12
2022-11-08T06:33:15.659Z,11.12
2022-11-08T06:34:20.427Z,11.14
2022-11-08T06:35:22.539Z,11.16
2022-11-08T06:36:25.549Z,11.16
2022-11-08T06:37:27.537Z,11.17
2022-11-08T06:38:30.531Z,11.17
2022-11-08T06:39:33.751Z,11.18
2022-11-08T06:40:37.453Z,11.18
2022-11-08T06:41:40.494Z,11.19
2022-11-08T06:42:42.553Z,11.19
2022-11-08T06:43:45.578Z,11.19
2022-11-08T06:44:48.677Z,11.18
2022-11-08T06:45:50.844Z,11.19
2022-11-08T06:46:55.813Z,11.19
2022-11-08T06:47:58.509Z,11.19
2022-11-08T06:49:01.548Z,11.20
2022-11-08T06:50:08.136Z,11.19
2022-11-08T06:51:10.473Z,11.19
2022-11-08T06:52:13.463Z,11.19
2022-11-08T06:53:15.873Z,11.20
2022-11-08T06:54:23.237Z,11.19
2022-11-08T06:55:28.408Z,11.20
2022-11-08T06:56:31.532Z,11.20
2022-11-08T06:57:34.769Z,11.20
2022-11-08T06:58:37.096Z,11.20
2022-11-08T06:59:40.143Z,11.23
2022-11-08T07:00:42.206Z,11.23
2022-11-08T07:01:45.984Z,11.24
2022-11-08T07:02:52.237Z,11.25
2022-11-08T07:03:55.470Z,11.26
2022-11-08T07:04:57.575Z,11.27
2022-11-08T07:06:03.963Z,11.27
2022-11-08T07:07:06.994Z,11.27
2022-11-08T07:08:09.297Z,11.28
2022-11-08T07:09:12.369Z,11.30
2022-11-08T07:10:14.428Z,11.30
2022-11-08T07:11:18.015Z,11.30
2022-11-08T07:12:20.022Z,11.31
2022-11-08T07:13:23.136Z,11.31
2022-11-08T07:14:26.182Z,11.31
2022-11-08T07:15:28.793Z,11.29
2022-11-08T07:16:31.951Z,11.32
2022-11-08T07:17:38.704Z,11.32
2022-11-08T07:18:42.286Z,11.33
2022-11-08T07:19:44.347Z,11.33
2022-11-08T07:20:47.382Z,11.33
2022-11-08T07:21:51.887Z,11.34
2022-11-08T07:22:54.810Z,11.35
2022-11-08T07:23:57.786Z,11.37
2022-11-08T07:24:59.766Z,11.38
2022-11-08T07:26:03.912Z,11.39
2022-11-08T07:27:07.090Z,11.39
2022-11-08T07:28:15.677Z,11.40
2022-11-08T07:29:18.846Z,11.42
2022-11-08T07:30:20.879Z,11.42
2022-11-08T07:31:24.059Z,11.40
2022-11-08T07:32:26.094Z,11.43
2022-11-08T07:33:29.803Z,11.44
2022-11-08T07:34:32.276Z,11.46
2022-11-08T07:35:35.283Z,11.46
2022-11-08T07:36:38.294Z,11.48
2022-11-08T07:37:41.664Z,11.49
2022-11-08T07:38:44.705Z,11.52
2022-11-08T07:39:46.707Z,11.53
2022-11-08T07:40:49.864Z,11.54
2022-11-08T07:41:52.846Z,11.56
2022-11-08T07:43:11.151Z,11.58
2022-11-08T07:44:15.563Z,11.62
2022-11-08T07:45:18.970Z,11.64
2022-11-08T07:46:22.028Z,11.65
2022-11-08T07:47:24.054Z,11.68
2022-11-08T07:48:28.065Z,11.70
2022-11-08T07:49:30.097Z,11.74
2022-11-08T07:50:33.727Z,11.76
2022-11-08T07:51:36.792Z,11.78
2022-11-08T07:52:38.907Z,11.80
2022-11-08T07:53:43.789Z,11.82
2022-11-08T07:54:46.800Z,11.86
2022-11-08T07:55:50.014Z,11.88
2022-11-08T07:56:52.019Z,11.90
2022-11-08T07:58:01.372Z,11.94
2022-11-08T07:59:04.400Z,11.96
2022-11-08T08:00:08.378Z,11.99
2022-11-08T08:01:15.146Z,12.01
2022-11-08T08:02:17.256Z,12.04
2022-11-08T08:03:20.976Z,12.06
2022-11-08T08:04:24.458Z,12.07
2022-11-08T08:05:26.970Z,12.10
2022-11-08T08:06:30.022Z,12.14
2022-11-08T08:07:32.036Z,12.16
2022-11-08T08:08:35.106Z,12.19
2022-11-08T08:09:38.483Z,12.23
2022-11-08T08:10:42.383Z,12.26
2022-11-08T08:11:45.392Z,12.29
2022-11-08T08:12:47.402Z,12.32
2022-11-08T08:13:53.926Z,12.34
2022-11-08T08:14:56.917Z,12.36
2022-11-08T08:16:01.558Z,12.39
2022-11-08T08:17:03.677Z,12.41
2022-11-08T08:18:08.665Z,12.44
2022-11-08T08:19:11.833Z,12.45
2022-11-08T08:20:14.090Z,12.48
2022-11-08T08:21:17.150Z,12.49
2022-11-08T08:22:19.227Z,12.50
2022-11-08T08:23:22.419Z,12.52
2022-11-08T08:24:26.765Z,12.54
2022-11-08T08:25:31.139Z,12.57
2022-11-08T08:26:34.178Z,12.61
2022-11-08T08:27:36.209Z,12.62
2022-11-08T08:28:39.194Z,12.66
2022-11-08T08:29:41.272Z,12.69
2022-11-08T08:30:44.311Z,12.72
2022-11-08T08:31:47.363Z,12.75
2022-11-08T08:33:08.269Z,12.78
2022-11-08T08:34:15.589Z,12.81
2022-11-08T08:35:18.734Z,12.83
2022-11-08T08:36:21.759Z,12.85
2022-11-08T08:37:23.741Z,12.85
2022-11-08T08:38:26.825Z,12.87
2022-11-08T08:39:29.866Z,12.86
2022-11-08T08:40:34.376Z,12.87
2022-11-08T08:41:37.563Z,12.86
2022-11-08T08:42:40.608Z,12.88
2022-11-08T08:43:43.778Z,12.89
2022-11-08T08:44:46.808Z,12.91
2022-11-08T08:45:50.008Z,12.91
2022-11-08T08:47:01.157Z,12.89
2022-11-08T08:48:05.000Z,12.92
2022-11-08T08:49:08.093Z,12.93
2022-11-08T08:50:10.446Z,12.95
2022-11-08T08:51:13.756Z,12.94
2022-11-08T08:52:15.903Z,12.96
2022-11-08T08:53:19.176Z,12.98
2022-11-08T08:54:24.586Z,13.01
2022-11-08T08:55:31.993Z,13.02
2022-11-08T08:56:35.214Z,13.04
2022-11-08T08:57:37.266Z,13.06
2022-11-08T08:58:40.520Z,13.06
2022-11-08T09:02:36.234Z,13.16
2022-11-08T09:03:42.868Z,13.19
2022-11-08T09:04:45.887Z,13.22
2022-11-08T09:05:49.063Z,13.23
2022-11-08T09:06:52.303Z,13.26
2022-11-08T09:07:55.784Z,13.29
2022-11-08T09:08:58.843Z,13.31
2022-11-08T09:10:01.188Z,13.33
2022-11-08T09:11:04.611Z,13.36
2022-11-08T09:12:11.829Z,13.37
2022-11-08T09:13:17.834Z,13.39
2022-11-08T09:14:21.039Z,13.41
2022-11-08T09:15:23.170Z,13.45
2022-11-08T09:16:26.209Z,13.47
2022-11-08T09:17:30.229Z,13.49
2022-11-08T09:18:35.089Z,13.54
2022-11-08T09:19:38.140Z,13.55
2022-11-08T09:20:43.904Z,13.58
2022-11-08T09:21:46.973Z,13.60
2022-11-08T09:22:48.995Z,13.64
2022-11-08T09:23:52.065Z,13.66
2022-11-08T09:24:54.198Z,13.68
2022-11-08T09:25:58.543Z,13.71
2022-11-08T09:27:03.658Z,13.73
2022-11-08T09:28:07.020Z,13.77
2022-11-08T09:29:10.150Z,13.78
2022-11-08T09:30:13.346Z,13.81
2022-11-08T09:31:15.405Z,13.84
2022-11-08T09:32:24.800Z,13.86
2022-11-08T09:33:39.084Z,13.89
2022-11-08T09:34:42.096Z,13.91
2022-11-08T09:35:46.249Z,13.93
2022-11-08T09:36:49.357Z,13.94
2022-11-08T09:37:53.935Z,13.95
2022-11-08T09:38:57.020Z,13.97
2022-11-08T09:39:59.027Z,13.98
2022-11-08T09:41:26.587Z,14.01
2022-11-08T09:42:46.777Z,14.02
2022-11-08T09:44:05.701Z,13.97
2022-11-08T09:45:18.074Z,14.05
2022-11-08T09:46:32.541Z,14.09
2022-11-08T09:47:38.665Z,14.10
2022-11-08T09:48:45.145Z,14.10
2022-11-08T09:50:02.422Z,14.12
2022-11-08T09:51:10.769Z,14.13
2022-11-08T09:52:22.110Z,14.13
2022-11-08T09:53:35.281Z,14.13
2022-11-08T09:54:44.912Z,14.13
2022-11-08T09:55:53.896Z,14.14
2022-11-08T09:56:56.927Z,14.12
2022-11-08T09:58:07.017Z,14.12
2022-11-08T09:59:31.647Z,14.13
2022-11-08T10:00:36.655Z,14.13
2022-11-08T10:01:40.162Z,14.14
2022-11-08T10:02:42.486Z,14.15
2022-11-08T10:03:50.160Z,14.16
2022-11-08T10:04:59.425Z,14.17
2022-11-08T10:06:24.640Z,14.18
2022-11-08T10:07:37.427Z,14.20
2022-11-08T10:08:45.831Z,14.20
2022-11-08T10:10:04.220Z,14.21
2022-11-08T10:11:35.273Z,14.23
2022-11-08T10:12:41.671Z,14.25
2022-11-08T10:13:57.590Z,14.26
2022-11-08T10:15:15.749Z,14.28
2022-11-08T10:16:28.324Z,14.29
2022-11-08T10:17:42.594Z,14.31
2022-11-08T10:19:06.856Z,14.31
2022-11-08T10:20:19.622Z,14.31
2022-11-08T10:21:39.196Z,14.32
2022-11-08T10:22:52.720Z,14.33
2022-11-08T10:24:03.365Z,14.33
2022-11-08T10:25:19.121Z,14.33
2022-11-08T10:26:27.748Z,14.32
2022-11-08T10:27:36.835Z,14.32
2022-11-08T10:28:44.450Z,14.32
2022-11-08T10:29:47.562Z,14.31
2022-11-08T10:30:52.216Z,14.31
2022-11-08T10:32:01.749Z,14.30
2022-11-08T10:33:17.302Z,14.28
2022-11-08T10:34:27.392Z,14.29
2022-11-08T10:35:37.300Z,14.29
2022-11-08T10:36:42.094Z,14.28
2022-11-08T10:37:45.902Z,14.30
2022-11-08T10:38:56.070Z,14.30
2022-11-08T10:40:03.606Z,14.29
2022-11-08T10:41:16.873Z,14.28
2022-11-08T10:42:26.726Z,14.29
2022-11-08T10:43:35.310Z,14.28
2022-11-08T10:44:41.466Z,14.28
2022-11-08T10:45:44.787Z,14.29
2022-11-08T10:46:50.869Z,14.29
2022-11-08T10:47:55.388Z,14.29
2022-11-08T10:49:02.689Z,14.30
2022-11-08T10:50:15.706Z,14.31
2022-11-08T10:51:18.997Z,14.31
2022-11-08T10:52:29.085Z,14.32
2022-11-08T10:53:32.685Z,14.34
2022-11-08T10:54:50.969Z,14.36
2022-11-08T10:56:00.548Z,14.40
2022-11-08T10:57:02.591Z,14.40
2022-11-08T10:58:06.092Z,14.41
2022-11-08T10:59:30.352Z,14.46
2022-11-08T11:00:34.535Z,14.46
2022-11-08T11:01:36.990Z,14.52
2022-11-08T11:02:40.110Z,14.54
2022-11-08T11:03:42.466Z,14.56
2022-11-08T11:04:45.557Z,14.57
2022-11-08T11:05:59.915Z,14.62
2022-11-08T11:07:03.685Z,14.65
2022-11-08T11:08:19.019Z,14.67
2022-11-08T11:09:22.484Z,14.70
2022-11-08T11:10:28.044Z,14.73
2022-11-08T11:11:38.456Z,14.75
2022-11-08T11:12:40.467Z,14.78
2022-11-08T11:13:43.570Z,14.81
2022-11-08T11:14:45.732Z,14.84
2022-11-08T11:15:51.342Z,14.86
2022-11-08T11:16:58.033Z,14.87
2022-11-08T11:18:01.158Z,14.92
2022-11-08T11:19:06.980Z,14.93
2022-11-08T11:20:22.172Z,14.97
2022-11-08T11:21:26.720Z,15.00
2022-11-08T11:22:32.271Z,15.03
2022-11-08T11:23:42.057Z,15.07
2022-11-08T11:24:50.918Z,15.09
2022-11-08T11:25:53.055Z,15.12
2022-11-08T11:27:07.449Z,15.16
2022-11-08T11:28:14.783Z,15.17
2022-11-08T11:29:22.821Z,15.19
2022-11-08T11:30:30.091Z,15.19
2022-11-08T11:31:33.069Z,15.22
2022-11-08T11:32:36.535Z,15.24
2022-11-08T11:33:46.158Z,15.28
2022-11-08T11:34:54.536Z,15.30
2022-11-08T11:36:02.111Z,15.34
2022-11-08T11:37:18.106Z,15.38
2022-11-08T11:38:36.498Z,15.40
2022-11-08T11:39:45.965Z,15.43
2022-11-08T11:40:51.094Z,15.40
2022-11-08T11:41:58.557Z,15.46
2022-11-08T11:43:10.799Z,15.48
2022-11-08T11:44:20.051Z,15.49
2022-11-08T11:45:30.047Z,15.51
2022-11-08T11:46:41.715Z,15.52
2022-11-08T11:47:48.015Z,15.48
2022-11-08T11:48:59.581Z,15.55
2022-11-08T11:50:12.569Z,15.55
2022-11-08T11:51:16.002Z,15.57
2022-11-08T11:52:19.987Z,15.58
2022-11-08T11:53:26.276Z,15.57
2022-11-08T11:54:32.305Z,15.58
2022-11-08T11:55:49.675Z,15.58
2022-11-08T11:56:59.279Z,15.59
2022-11-08T11:58:13.518Z,15.59
2022-11-08T11:59:35.095Z,15.58
2022-11-08T12:00:41.778Z,15.60
2022-11-08T12:02:09.501Z,15.60
2022-11-08T12:03:34.431Z,15.62
2022-11-08T12:04:53.479Z,15.62
2022-11-08T12:06:12.361Z,15.63
2022-11-08T12:07:24.926Z,15.65
2022-11-08T12:08:36.917Z,15.66
2022-11-08T12:09:54.675Z,15.66
2022-11-08T12:11:13.991Z,15.68
2022-11-08T12:12:29.620Z,15.71
2022-11-08T12:13:53.058Z,15.72
2022-11-08T12:15:05.509Z,15.74
2022-11-08T12:16:15.492Z,15.75
2022-11-08T12:17:32.297Z,15.75
2022-11-08T12:18:47.669Z,15.78
2022-11-08T12:20:03.899Z,15.77
2022-11-08T12:21:11.474Z,15.79
2022-11-08T12:22:34.508Z,15.79
2022-11-08T12:23:59.794Z,15.80
2022-11-08T12:25:11.530Z,15.80
2022-11-08T12:26:23.574Z,15.79
2022-11-08T12:27:39.433Z,15.80
2022-11-08T12:28:59.256Z,15.80
2022-11-08T12:30:05.405Z,15.79
2022-11-08T12:31:20.184Z,15.79
2022-11-08T12:32:45.464Z,15.76
2022-11-08T12:33:58.437Z,15.75
2022-11-08T12:35:24.743Z,15.74
2022-11-08T12:36:36.534Z,15.72
2022-11-08T12:37:56.533Z,15.75
2022-11-08T12:39:08.723Z,15.75
2022-11-08T12:40:20.307Z,15.75
2022-11-08T12:41:30.163Z,15.75
2022-11-08T12:42:58.815Z,15.75
2022-11-08T12:44:20.614Z,15.74
2022-11-08T12:45:46.420Z,15.75
2022-11-08T12:47:05.421Z,15.76
2022-11-08T12:48:19.361Z,15.77
2022-11-08T12:49:37.853Z,15.76
2022-11-08T12:50:51.405Z,15.78
2022-11-08T12:52:08.287Z,15.74
2022-11-08T12:53:49.804Z,15.78
2022-11-08T12:54:55.841Z,15.80
2022-11-08T12:55:59.055Z,15.75
2022-11-08T12:57:05.361Z,15.82
2022-11-08T12:58:22.319Z,15.83
2022-11-08T12:59:29.097Z,15.84
2022-11-08T13:00:33.460Z,15.84
2022-11-08T13:01:38.110Z,15.85
2022-11-08T13:02:42.432Z,15.86
2022-11-08T13:04:18.992Z,15.86
2022-11-08T13:05:25.759Z,15.86
2022-11-08T13:06:34.668Z,15.87
2022-11-08T13:07:46.482Z,15.86
2022-11-08T13:09:03.634Z,15.86
2022-11-08T13:10:13.822Z,15.87
2022-11-08T13:11:22.792Z,15.87
2022-11-08T13:12:45.040Z,15.86
2022-11-08T13:13:50.315Z,15.86
2022-11-08T13:14:53.592Z,15.85
2022-11-08T13:16:12.423Z,15.85
2022-11-08T13:17:22.955Z,15.84
2022-11-08T13:18:34.803Z,15.83
2022-11-08T13:20:10.478Z,15.83
2022-11-08T13:21:39.262Z,15.82
2022-11-08T13:22:59.200Z,15.82
2022-11-08T13:24:44.492Z,15.84
2022-11-08T13:25:50.075Z,15.86
2022-11-08T13:26:55.846Z,15.88
2022-11-08T13:28:02.535Z,15.91
2022-11-08T13:29:15.768Z,15.94
2022-11-08T13:30:38.121Z,15.96
2022-11-08T13:31:51.334Z,15.97
2022-11-08T13:32:59.529Z,15.98
2022-11-08T13:34:19.162Z,15.99
2022-11-08T13:35:27.010Z,15.98
2022-11-08T13:36:41.416Z,15.99
2022-11-08T13:37:55.572Z,15.99
2022-11-08T13:39:18.659Z,15.99
2022-11-08T13:40:36.005Z,15.98
2022-11-08T13:42:02.657Z,15.97
2022-11-08T13:43:27.125Z,15.95
2022-11-08T13:44:58.883Z,15.86
2022-11-08T13:46:35.898Z,15.90
2022-11-08T13:47:54.347Z,15.86
2022-11-08T13:49:16.138Z,15.84
2022-11-08T13:51:01.576Z,15.81
2022-11-08T13:52:45.350Z,15.79
2022-11-08T13:53:49.857Z,15.76
2022-11-08T13:54:53.545Z,15.74
2022-11-08T13:55:58.024Z,15.71
2022-11-08T13:57:03.124Z,15.70
2022-11-08T13:58:32.439Z,15.67
2022-11-08T13:59:58.988Z,15.64
2022-11-08T14:01:02.626Z,15.63
2022-11-08T14:02:26.850Z,15.62
2022-11-08T14:03:55.019Z,15.61
2022-11-08T14:05:16.312Z,15.59
2022-11-08T14:06:27.707Z,15.56
2022-11-08T14:07:38.085Z,15.55
2022-11-08T14:08:48.177Z,15.55
2022-11-08T14:10:00.331Z,15.54
2022-11-08T14:11:39.675Z,15.52
2022-11-08T14:12:52.020Z,15.52
2022-11-08T14:14:43.306Z,15.51
2022-11-08T14:15:51.611Z,15.50
2022-11-08T14:17:29.913Z,15.50
2022-11-08T14:18:34.574Z,15.49
2022-11-08T14:19:40.366Z,15.49
2022-11-08T14:20:46.040Z,15.49
2022-11-08T14:21:52.179Z,15.49
2022-11-08T14:22:56.204Z,15.48
2022-11-08T14:23:59.312Z,15.48